sensor_id;sensor_type;location;lat;lon;timestamp;temperature;humidity
23618;DHT22;18207;32.078;34.818;2024-03-06T00:00:14;24.30;38.10
23618;DHT22;18207;32.078;34.818;2024-03-06T00:02:44;24.20;38.10
23618;DHT22;18207;32.078;34.818;2024-03-06T00:05:14;24.30;38.10
23618;DHT22;18207;32.078;34.818;2024-03-06T00:07:44;24.30;38.20
23618;DHT22;18207;32.078;34.818;2024-03-06T00:10:13;24.30;38.20
23618;DHT22;18207;32.078;34.818;2024-03-06T00:12:45;24.20;37.90
23618;DHT22;18207;32.078;34.818;2024-03-06T00:15:14;24.20;37.90
23618;DHT22;18207;32.078;34.818;2024-03-06T00:17:44;24.20;37.70
23618;DHT22;18207;32.078;34.818;2024-03-06T00:20:14;24.10;37.60
23618;DHT22;18207;32.078;34.818;2024-03-06T00:22:44;24.10;37.60
23618;DHT22;18207;32.078;34.818;2024-03-06T00:25:14;24.10;37.60
23618;DHT22;18207;32.078;34.818;2024-03-06T00:27:46;24.00;37.50
23618;DHT22;18207;32.078;34.818;2024-03-06T00:30:16;23.90;37.60
23618;DHT22;18207;32.078;34.818;2024-03-06T00:32:46;23.90;37.60
23618;DHT22;18207;32.078;34.818;2024-03-06T00:35:16;23.90;37.70
23618;DHT22;18207;32.078;34.818;2024-03-06T00:37:47;23.80;37.80
23618;DHT22;18207;32.078;34.818;2024-03-06T00:40:16;23.70;37.80
23618;DHT22;18207;32.078;34.818;2024-03-06T00:42:48;23.70;37.90
23618;DHT22;18207;32.078;34.818;2024-03-06T00:45:18;23.70;38.10
23618;DHT22;18207;32.078;34.818;2024-03-06T00:47:48;23.70;38.10
23618;DHT22;18207;32.078;34.818;2024-03-06T00:50:18;23.70;38.10
23618;DHT22;18207;32.078;34.818;2024-03-06T00:52:59;23.70;38.20
23618;DHT22;18207;32.078;34.818;2024-03-06T00:55:29;23.70;38.10
23618;DHT22;18207;32.078;34.818;2024-03-06T00:58:01;23.70;38.10
23618;DHT22;18207;32.078;34.818;2024-03-06T01:00:34;23.70;38.20
23618;DHT22;18207;32.078;34.818;2024-03-06T01:03:07;23.60;38.10
23618;DHT22;18207;32.078;34.818;2024-03-06T01:05:37;23.60;38.20
23618;DHT22;18207;32.078;34.818;2024-03-06T01:08:07;23.60;38.20
23618;DHT22;18207;32.078;34.818;2024-03-06T01:10:37;23.60;38.20
23618;DHT22;18207;32.078;34.818;2024-03-06T01:13:08;23.60;38.10
23618;DHT22;18207;32.078;34.818;2024-03-06T01:15:39;23.60;38.70
23618;DHT22;18207;32.078;34.818;2024-03-06T01:18:09;23.60;38.00
23618;DHT22;18207;32.078;34.818;2024-03-06T01:20:38;23.50;37.90
23618;DHT22;18207;32.078;34.818;2024-03-06T01:23:08;23.50;37.80
23618;DHT22;18207;32.078;34.818;2024-03-06T01:25:47;23.50;37.80
23618;DHT22;18207;32.078;34.818;2024-03-06T01:28:19;23.50;37.80
23618;DHT22;18207;32.078;34.818;2024-03-06T01:30:49;23.40;37.80
23618;DHT22;18207;32.078;34.818;2024-03-06T01:33:19;23.40;37.80
23618;DHT22;18207;32.078;34.818;2024-03-06T01:35:49;23.30;37.70
23618;DHT22;18207;32.078;34.818;2024-03-06T01:38:34;23.30;37.70
23618;DHT22;18207;32.078;34.818;2024-03-06T01:41:04;23.20;37.70
23618;DHT22;18207;32.078;34.818;2024-03-06T01:43:39;23.20;37.70
23618;DHT22;18207;32.078;34.818;2024-03-06T01:46:18;23.10;37.60
23618;DHT22;18207;32.078;34.818;2024-03-06T01:48:48;23.10;37.70
23618;DHT22;18207;32.078;34.818;2024-03-06T01:51:17;23.00;37.70
23618;DHT22;18207;32.078;34.818;2024-03-06T01:53:48;23.00;37.70
23618;DHT22;18207;32.078;34.818;2024-03-06T01:56:21;23.00;37.70
23618;DHT22;18207;32.078;34.818;2024-03-06T01:58:53;23.00;37.70
23618;DHT22;18207;32.078;34.818;2024-03-06T02:01:24;22.90;37.50
23618;DHT22;18207;32.078;34.818;2024-03-06T02:03:55;22.90;37.50
23618;DHT22;18207;32.078;34.818;2024-03-06T02:06:26;22.80;37.60
23618;DHT22;18207;32.078;34.818;2024-03-06T02:08:55;22.80;37.50
23618;DHT22;18207;32.078;34.818;2024-03-06T02:11:29;22.80;37.60
23618;DHT22;18207;32.078;34.818;2024-03-06T02:14:01;22.70;37.50
23618;DHT22;18207;32.078;34.818;2024-03-06T02:16:32;22.70;37.50
23618;DHT22;18207;32.078;34.818;2024-03-06T02:19:01;22.70;37.50
23618;DHT22;18207;32.078;34.818;2024-03-06T02:21:34;22.70;37.40
23618;DHT22;18207;32.078;34.818;2024-03-06T02:24:04;22.70;37.40
23618;DHT22;18207;32.078;34.818;2024-03-06T02:26:36;22.60;37.30
23618;DHT22;18207;32.078;34.818;2024-03-06T02:29:06;22.70;37.30
23618;DHT22;18207;32.078;34.818;2024-03-06T02:31:37;22.60;37.20
23618;DHT22;18207;32.078;34.818;2024-03-06T02:34:07;22.60;37.20
23618;DHT22;18207;32.078;34.818;2024-03-06T02:36:39;22.60;37.20
23618;DHT22;18207;32.078;34.818;2024-03-06T02:39:08;22.60;37.20
23618;DHT22;18207;32.078;34.818;2024-03-06T02:41:38;22.60;37.20
23618;DHT22;18207;32.078;34.818;2024-03-06T02:44:08;22.60;37.20
23618;DHT22;18207;32.078;34.818;2024-03-06T02:46:39;22.60;37.30
23618;DHT22;18207;32.078;34.818;2024-03-06T02:49:12;22.60;37.30
23618;DHT22;18207;32.078;34.818;2024-03-06T02:51:43;22.60;37.30
23618;DHT22;18207;32.078;34.818;2024-03-06T02:54:23;22.60;37.30
23618;DHT22;18207;32.078;34.818;2024-03-06T02:56:52;22.60;37.20
23618;DHT22;18207;32.078;34.818;2024-03-06T02:59:25;22.70;37.40
23618;DHT22;18207;32.078;34.818;2024-03-06T03:01:55;22.70;37.30
23618;DHT22;18207;32.078;34.818;2024-03-06T03:04:28;22.70;37.30
23618;DHT22;18207;32.078;34.818;2024-03-06T03:07:00;22.80;37.30
23618;DHT22;18207;32.078;34.818;2024-03-06T03:09:30;22.80;37.30
23618;DHT22;18207;32.078;34.818;2024-03-06T03:12:09;22.90;37.30
23618;DHT22;18207;32.078;34.818;2024-03-06T03:14:40;22.90;37.20
23618;DHT22;18207;32.078;34.818;2024-03-06T03:17:10;22.90;37.20
23618;DHT22;18207;32.078;34.818;2024-03-06T03:19:43;23.00;37.20
23618;DHT22;18207;32.078;34.818;2024-03-06T03:22:18;22.90;36.90
23618;DHT22;18207;32.078;34.818;2024-03-06T03:24:47;23.00;36.70
23618;DHT22;18207;32.078;34.818;2024-03-06T03:27:21;23.00;36.70
23618;DHT22;18207;32.078;34.818;2024-03-06T03:29:50;22.90;36.50
23618;DHT22;18207;32.078;34.818;2024-03-06T03:32:20;22.90;36.50
23618;DHT22;18207;32.078;34.818;2024-03-06T03:34:53;22.90;36.60
23618;DHT22;18207;32.078;34.818;2024-03-06T03:37:25;22.90;36.60
23618;DHT22;18207;32.078;34.818;2024-03-06T03:39:55;22.90;36.50
23618;DHT22;18207;32.078;34.818;2024-03-06T03:42:25;22.90;36.50
23618;DHT22;18207;32.078;34.818;2024-03-06T03:44:58;22.90;36.40
23618;DHT22;18207;32.078;34.818;2024-03-06T03:47:30;22.90;36.40
23618;DHT22;18207;32.078;34.818;2024-03-06T03:50:00;22.90;36.40
23618;DHT22;18207;32.078;34.818;2024-03-06T03:52:39;22.90;36.40
23618;DHT22;18207;32.078;34.818;2024-03-06T03:55:10;22.90;36.50
23618;DHT22;18207;32.078;34.818;2024-03-06T03:57:42;22.90;36.40
23618;DHT22;18207;32.078;34.818;2024-03-06T04:00:13;22.90;36.40
23618;DHT22;18207;32.078;34.818;2024-03-06T04:02:44;22.90;36.50
23618;DHT22;18207;32.078;34.818;2024-03-06T04:05:14;22.90;36.50
23618;DHT22;18207;32.078;34.818;2024-03-06T04:07:46;23.00;36.60
23618;DHT22;18207;32.078;34.818;2024-03-06T04:10:16;22.90;36.60
23618;DHT22;18207;32.078;34.818;2024-03-06T04:12:46;23.00;36.60
23618;DHT22;18207;32.078;34.818;2024-03-06T04:15:16;22.90;36.50
23618;DHT22;18207;32.078;34.818;2024-03-06T04:17:46;23.00;36.70
23618;DHT22;18207;32.078;34.818;2024-03-06T04:20:17;23.00;36.70
23618;DHT22;18207;32.078;34.818;2024-03-06T04:22:48;23.00;37.10
23618;DHT22;18207;32.078;34.818;2024-03-06T04:25:19;23.00;36.50
23618;DHT22;18207;32.078;34.818;2024-03-06T04:27:51;23.00;36.50
23618;DHT22;18207;32.078;34.818;2024-03-06T04:30:22;23.00;36.50
23618;DHT22;18207;32.078;34.818;2024-03-06T04:32:56;22.90;36.40
23618;DHT22;18207;32.078;34.818;2024-03-06T04:35:26;22.90;36.40
23618;DHT22;18207;32.078;34.818;2024-03-06T04:38:06;22.90;36.40
23618;DHT22;18207;32.078;34.818;2024-03-06T04:40:36;22.90;36.40
23618;DHT22;18207;32.078;34.818;2024-03-06T04:43:07;22.90;36.40
23618;DHT22;18207;32.078;34.818;2024-03-06T04:45:37;22.80;36.30
23618;DHT22;18207;32.078;34.818;2024-03-06T04:48:08;22.80;36.30
23618;DHT22;18207;32.078;34.818;2024-03-06T04:50:38;22.80;36.40
23618;DHT22;18207;32.078;34.818;2024-03-06T04:53:10;22.80;36.50
23618;DHT22;18207;32.078;34.818;2024-03-06T04:55:40;22.80;36.60
23618;DHT22;18207;32.078;34.818;2024-03-06T04:58:10;22.80;37.40
23618;DHT22;18207;32.078;34.818;2024-03-06T05:00:40;22.80;36.90
23618;DHT22;18207;32.078;34.818;2024-03-06T05:03:12;22.80;37.00
23618;DHT22;18207;32.078;34.818;2024-03-06T05:06:00;22.80;37.10
23618;DHT22;18207;32.078;34.818;2024-03-06T05:08:49;22.90;37.10
23618;DHT22;18207;32.078;34.818;2024-03-06T05:11:39;22.90;37.10
23618;DHT22;18207;32.078;34.818;2024-03-06T05:14:26;22.90;37.10
23618;DHT22;18207;32.078;34.818;2024-03-06T05:17:14;22.90;37.10
23618;DHT22;18207;32.078;34.818;2024-03-06T05:20:02;23.00;37.30
23618;DHT22;18207;32.078;34.818;2024-03-06T05:22:50;23.00;37.30
23618;DHT22;18207;32.078;34.818;2024-03-06T05:25:38;23.00;37.30
23618;DHT22;18207;32.078;34.818;2024-03-06T05:28:25;23.10;37.30
23618;DHT22;18207;32.078;34.818;2024-03-06T05:31:19;23.10;37.30
23618;DHT22;18207;32.078;34.818;2024-03-06T05:34:07;23.20;37.20
23618;DHT22;18207;32.078;34.818;2024-03-06T05:36:54;23.20;37.20
23618;DHT22;18207;32.078;34.818;2024-03-06T05:39:42;23.30;37.30
23618;DHT22;18207;32.078;34.818;2024-03-06T05:42:31;23.40;37.40
23618;DHT22;18207;32.078;34.818;2024-03-06T05:45:17;23.40;37.30
23618;DHT22;18207;32.078;34.818;2024-03-06T05:48:05;23.50;37.30
23618;DHT22;18207;32.078;34.818;2024-03-06T05:50:53;23.60;37.20
23618;DHT22;18207;32.078;34.818;2024-03-06T05:53:40;23.70;37.20
23618;DHT22;18207;32.078;34.818;2024-03-06T05:56:28;23.70;37.10
23618;DHT22;18207;32.078;34.818;2024-03-06T05:59:18;23.80;37.10
23618;DHT22;18207;32.078;34.818;2024-03-06T06:01:51;23.90;36.90
23618;DHT22;18207;32.078;34.818;2024-03-06T06:04:22;23.90;36.70
23618;DHT22;18207;32.078;34.818;2024-03-06T06:06:53;24.00;36.60
23618;DHT22;18207;32.078;34.818;2024-03-06T06:09:23;24.00;36.50
23618;DHT22;18207;32.078;34.818;2024-03-06T06:11:53;24.10;36.50
23618;DHT22;18207;32.078;34.818;2024-03-06T06:14:27;24.10;36.50
23618;DHT22;18207;32.078;34.818;2024-03-06T06:16:57;24.20;36.80
23618;DHT22;18207;32.078;34.818;2024-03-06T06:19:28;24.30;36.50
23618;DHT22;18207;32.078;34.818;2024-03-06T06:21:57;24.30;36.50
23618;DHT22;18207;32.078;34.818;2024-03-06T06:24:28;24.40;36.50
23618;DHT22;18207;32.078;34.818;2024-03-06T06:26:58;24.40;37.10
23618;DHT22;18207;32.078;34.818;2024-03-06T06:29:32;24.50;36.70
23618;DHT22;18207;32.078;34.818;2024-03-06T06:32:02;24.60;36.70
23618;DHT22;18207;32.078;34.818;2024-03-06T06:34:33;24.60;36.70
23618;DHT22;18207;32.078;34.818;2024-03-06T06:37:03;24.70;36.80
23618;DHT22;18207;32.078;34.818;2024-03-06T06:39:32;24.70;36.70
23618;DHT22;18207;32.078;34.818;2024-03-06T06:42:03;24.80;36.80
23618;DHT22;18207;32.078;34.818;2024-03-06T06:44:34;24.90;36.90
23618;DHT22;18207;32.078;34.818;2024-03-06T06:47:13;24.90;37.00
23618;DHT22;18207;32.078;34.818;2024-03-06T06:49:43;25.00;37.20
23618;DHT22;18207;32.078;34.818;2024-03-06T06:52:13;25.10;37.20
23618;DHT22;18207;32.078;34.818;2024-03-06T06:54:43;25.10;37.30
23618;DHT22;18207;32.078;34.818;2024-03-06T06:57:13;25.20;37.40
23618;DHT22;18207;32.078;34.818;2024-03-06T06:59:45;25.20;37.50
23618;DHT22;18207;32.078;34.818;2024-03-06T07:02:15;25.30;37.60
23618;DHT22;18207;32.078;34.818;2024-03-06T07:04:45;25.30;37.70
23618;DHT22;18207;32.078;34.818;2024-03-06T07:07:17;25.40;37.80
23618;DHT22;18207;32.078;34.818;2024-03-06T07:09:48;25.40;38.00
23618;DHT22;18207;32.078;34.818;2024-03-06T07:12:17;25.50;38.20
23618;DHT22;18207;32.078;34.818;2024-03-06T07:14:49;25.50;38.30
23618;DHT22;18207;32.078;34.818;2024-03-06T07:17:19;25.60;38.50
23618;DHT22;18207;32.078;34.818;2024-03-06T07:20:01;25.70;38.50
23618;DHT22;18207;32.078;34.818;2024-03-06T07:22:33;25.80;38.60
23618;DHT22;18207;32.078;34.818;2024-03-06T07:25:03;25.80;38.60
23618;DHT22;18207;32.078;34.818;2024-03-06T07:27:33;25.90;38.70
23618;DHT22;18207;32.078;34.818;2024-03-06T07:30:06;25.90;38.70
23618;DHT22;18207;32.078;34.818;2024-03-06T07:32:40;26.00;38.70
23618;DHT22;18207;32.078;34.818;2024-03-06T07:35:10;26.10;38.80
23618;DHT22;18207;32.078;34.818;2024-03-06T07:37:40;26.10;38.80
23618;DHT22;18207;32.078;34.818;2024-03-06T07:40:12;26.20;38.80
23618;DHT22;18207;32.078;34.818;2024-03-06T07:42:42;26.30;38.90
23618;DHT22;18207;32.078;34.818;2024-03-06T07:45:14;26.30;38.90
23618;DHT22;18207;32.078;34.818;2024-03-06T07:47:44;26.30;38.90
23618;DHT22;18207;32.078;34.818;2024-03-06T07:50:16;26.40;39.00
23618;DHT22;18207;32.078;34.818;2024-03-06T07:52:47;26.40;39.00
23618;DHT22;18207;32.078;34.818;2024-03-06T07:55:26;26.50;39.00
23618;DHT22;18207;32.078;34.818;2024-03-06T07:57:56;26.50;39.00
23618;DHT22;18207;32.078;34.818;2024-03-06T08:00:28;26.60;39.10
23618;DHT22;18207;32.078;34.818;2024-03-06T08:02:59;26.60;39.00
23618;DHT22;18207;32.078;34.818;2024-03-06T08:05:29;26.60;38.80
23618;DHT22;18207;32.078;34.818;2024-03-06T08:08:04;26.70;38.90
23618;DHT22;18207;32.078;34.818;2024-03-06T08:10:49;26.80;38.90
23618;DHT22;18207;32.078;34.818;2024-03-06T08:13:32;26.80;38.80
23618;DHT22;18207;32.078;34.818;2024-03-06T08:16:25;26.90;38.70
23618;DHT22;18207;32.078;34.818;2024-03-06T08:19:10;26.90;38.60
23618;DHT22;18207;32.078;34.818;2024-03-06T08:21:44;26.90;38.50
23618;DHT22;18207;32.078;34.818;2024-03-06T08:24:29;27.00;38.60
23618;DHT22;18207;32.078;34.818;2024-03-06T08:27:00;27.00;38.50
23618;DHT22;18207;32.078;34.818;2024-03-06T08:29:33;27.00;38.30
23618;DHT22;18207;32.078;34.818;2024-03-06T08:32:06;27.10;38.20
23618;DHT22;18207;32.078;34.818;2024-03-06T08:34:38;27.20;38.10
23618;DHT22;18207;32.078;34.818;2024-03-06T08:37:09;27.20;38.00
23618;DHT22;18207;32.078;34.818;2024-03-06T08:39:40;27.20;38.00
23618;DHT22;18207;32.078;34.818;2024-03-06T08:42:11;27.20;37.80
23618;DHT22;18207;32.078;34.818;2024-03-06T08:44:47;27.30;37.70
23618;DHT22;18207;32.078;34.818;2024-03-06T08:47:18;27.30;37.70
23618;DHT22;18207;32.078;34.818;2024-03-06T08:49:48;27.30;37.70
23618;DHT22;18207;32.078;34.818;2024-03-06T08:52:19;27.40;37.70
23618;DHT22;18207;32.078;34.818;2024-03-06T08:54:49;27.40;37.60
23618;DHT22;18207;32.078;34.818;2024-03-06T08:57:19;27.40;37.60
23618;DHT22;18207;32.078;34.818;2024-03-06T08:59:50;27.50;37.50
23618;DHT22;18207;32.078;34.818;2024-03-06T09:02:24;27.50;37.50
23618;DHT22;18207;32.078;34.818;2024-03-06T09:04:55;27.60;37.50
23618;DHT22;18207;32.078;34.818;2024-03-06T09:07:26;27.60;37.50
23618;DHT22;18207;32.078;34.818;2024-03-06T09:09:56;27.60;37.50
23618;DHT22;18207;32.078;34.818;2024-03-06T09:12:26;27.60;37.50
23618;DHT22;18207;32.078;34.818;2024-03-06T09:14:57;27.70;37.60
23618;DHT22;18207;32.078;34.818;2024-03-06T09:17:35;27.80;37.70
23618;DHT22;18207;32.078;34.818;2024-03-06T09:20:10;27.80;37.40
23618;DHT22;18207;32.078;34.818;2024-03-06T09:22:42;27.80;37.20
23618;DHT22;18207;32.078;34.818;2024-03-06T09:25:13;27.80;37.10
23618;DHT22;18207;32.078;34.818;2024-03-06T09:27:45;27.80;37.00
23618;DHT22;18207;32.078;34.818;2024-03-06T09:30:17;27.90;37.00
23618;DHT22;18207;32.078;34.818;2024-03-06T09:32:50;27.90;37.00
23618;DHT22;18207;32.078;34.818;2024-03-06T09:35:20;27.90;37.00
23618;DHT22;18207;32.078;34.818;2024-03-06T09:37:50;27.90;37.00
23618;DHT22;18207;32.078;34.818;2024-03-06T09:40:21;27.90;36.80
23618;DHT22;18207;32.078;34.818;2024-03-06T09:42:52;27.90;36.70
23618;DHT22;18207;32.078;34.818;2024-03-06T09:45:22;27.90;36.50
23618;DHT22;18207;32.078;34.818;2024-03-06T09:47:57;28.00;36.50
23618;DHT22;18207;32.078;34.818;2024-03-06T09:50:29;28.00;36.40
23618;DHT22;18207;32.078;34.818;2024-03-06T09:53:06;28.00;36.30
23618;DHT22;18207;32.078;34.818;2024-03-06T09:55:43;28.00;36.30
23618;DHT22;18207;32.078;34.818;2024-03-06T09:58:15;28.00;36.30
23618;DHT22;18207;32.078;34.818;2024-03-06T10:00:50;28.00;36.30
23618;DHT22;18207;32.078;34.818;2024-03-06T10:03:23;28.00;36.30
23618;DHT22;18207;32.078;34.818;2024-03-06T10:05:54;28.00;36.30
23618;DHT22;18207;32.078;34.818;2024-03-06T10:08:31;28.00;36.30
23618;DHT22;18207;32.078;34.818;2024-03-06T10:11:00;28.10;36.50
23618;DHT22;18207;32.078;34.818;2024-03-06T10:13:34;28.00;36.50
23618;DHT22;18207;32.078;34.818;2024-03-06T10:16:07;28.00;36.70
23618;DHT22;18207;32.078;34.818;2024-03-06T10:18:43;28.00;36.80
23618;DHT22;18207;32.078;34.818;2024-03-06T10:21:14;28.00;36.90
23618;DHT22;18207;32.078;34.818;2024-03-06T10:23:47;28.00;37.00
23618;DHT22;18207;32.078;34.818;2024-03-06T10:26:17;28.00;37.20
23618;DHT22;18207;32.078;34.818;2024-03-06T10:28:48;28.00;37.20
23618;DHT22;18207;32.078;34.818;2024-03-06T10:31:27;28.00;37.30
23618;DHT22;18207;32.078;34.818;2024-03-06T10:33:58;27.90;37.40
23618;DHT22;18207;32.078;34.818;2024-03-06T10:36:32;28.00;37.40
23618;DHT22;18207;32.078;34.818;2024-03-06T10:39:02;27.90;37.40
23618;DHT22;18207;32.078;34.818;2024-03-06T10:41:33;27.90;37.50
23618;DHT22;18207;32.078;34.818;2024-03-06T10:44:05;27.90;37.60
23618;DHT22;18207;32.078;34.818;2024-03-06T10:46:44;27.90;37.60
23618;DHT22;18207;32.078;34.818;2024-03-06T10:49:18;27.90;37.60
23618;DHT22;18207;32.078;34.818;2024-03-06T10:51:50;27.90;37.60
23618;DHT22;18207;32.078;34.818;2024-03-06T10:54:22;27.90;37.60
23618;DHT22;18207;32.078;34.818;2024-03-06T10:56:53;27.90;37.60
23618;DHT22;18207;32.078;34.818;2024-03-06T10:59:34;27.90;37.60
23618;DHT22;18207;32.078;34.818;2024-03-06T11:02:05;27.90;37.60
23618;DHT22;18207;32.078;34.818;2024-03-06T11:04:40;27.90;37.60
23618;DHT22;18207;32.078;34.818;2024-03-06T11:07:11;27.90;37.60
23618;DHT22;18207;32.078;34.818;2024-03-06T11:09:42;27.90;37.60
23618;DHT22;18207;32.078;34.818;2024-03-06T11:12:12;27.90;37.60
23618;DHT22;18207;32.078;34.818;2024-03-06T11:14:42;27.90;37.60
23618;DHT22;18207;32.078;34.818;2024-03-06T11:17:13;27.90;37.60
23618;DHT22;18207;32.078;34.818;2024-03-06T11:20:17;27.90;37.60
23618;DHT22;18207;32.078;34.818;2024-03-06T11:23:08;27.80;37.80
23618;DHT22;18207;32.078;34.818;2024-03-06T11:26:07;27.80;37.90
23618;DHT22;18207;32.078;34.818;2024-03-06T11:28:40;27.80;37.90
23618;DHT22;18207;32.078;34.818;2024-03-06T11:31:19;27.80;37.90
23618;DHT22;18207;32.078;34.818;2024-03-06T11:33:54;27.80;37.90
23618;DHT22;18207;32.078;34.818;2024-03-06T11:36:29;27.80;38.00
23618;DHT22;18207;32.078;34.818;2024-03-06T11:39:00;27.80;38.00
23618;DHT22;18207;32.078;34.818;2024-03-06T11:41:47;27.80;38.00
23618;DHT22;18207;32.078;34.818;2024-03-06T11:44:19;27.80;38.00
23618;DHT22;18207;32.078;34.818;2024-03-06T11:46:58;27.80;37.90
23618;DHT22;18207;32.078;34.818;2024-03-06T11:49:30;27.80;37.90
23618;DHT22;18207;32.078;34.818;2024-03-06T11:52:05;27.70;37.80
23618;DHT22;18207;32.078;34.818;2024-03-06T11:54:36;27.70;37.80
23618;DHT22;18207;32.078;34.818;2024-03-06T11:57:08;27.70;37.80
23618;DHT22;18207;32.078;34.818;2024-03-06T12:00:03;27.70;37.90
23618;DHT22;18207;32.078;34.818;2024-03-06T12:02:36;27.70;37.90
23618;DHT22;18207;32.078;34.818;2024-03-06T12:05:07;27.70;37.90
23618;DHT22;18207;32.078;34.818;2024-03-06T12:07:48;27.60;37.80
23618;DHT22;18207;32.078;34.818;2024-03-06T12:10:23;27.60;37.80
23618;DHT22;18207;32.078;34.818;2024-03-06T12:13:01;27.60;37.80
23618;DHT22;18207;32.078;34.818;2024-03-06T12:15:31;27.50;37.80
23618;DHT22;18207;32.078;34.818;2024-03-06T12:18:02;27.50;37.80
23618;DHT22;18207;32.078;34.818;2024-03-06T12:20:34;27.50;37.80
23618;DHT22;18207;32.078;34.818;2024-03-06T12:23:06;27.50;37.80
23618;DHT22;18207;32.078;34.818;2024-03-06T12:25:36;27.40;37.70
23618;DHT22;18207;32.078;34.818;2024-03-06T12:28:10;27.40;37.60
23618;DHT22;18207;32.078;34.818;2024-03-06T12:30:49;27.40;37.50
23618;DHT22;18207;32.078;34.818;2024-03-06T12:33:35;27.40;37.30
23618;DHT22;18207;32.078;34.818;2024-03-06T12:36:07;27.40;37.30
23618;DHT22;18207;32.078;34.818;2024-03-06T12:38:43;27.40;37.30
23618;DHT22;18207;32.078;34.818;2024-03-06T12:41:13;27.40;37.20
23618;DHT22;18207;32.078;34.818;2024-03-06T12:43:47;27.30;37.10
23618;DHT22;18207;32.078;34.818;2024-03-06T12:46:20;27.30;37.20
23618;DHT22;18207;32.078;34.818;2024-03-06T12:48:50;27.30;37.10
23618;DHT22;18207;32.078;34.818;2024-03-06T12:51:23;27.30;37.10
23618;DHT22;18207;32.078;34.818;2024-03-06T12:53:56;27.30;37.00
23618;DHT22;18207;32.078;34.818;2024-03-06T12:56:29;27.20;36.90
23618;DHT22;18207;32.078;34.818;2024-03-06T12:58:59;27.30;36.90
23618;DHT22;18207;32.078;34.818;2024-03-06T13:01:29;27.20;36.80
23618;DHT22;18207;32.078;34.818;2024-03-06T13:04:10;27.20;36.80
23618;DHT22;18207;32.078;34.818;2024-03-06T13:06:48;27.20;36.80
23618;DHT22;18207;32.078;34.818;2024-03-06T13:09:21;27.20;36.80
23618;DHT22;18207;32.078;34.818;2024-03-06T13:11:58;27.20;36.90
23618;DHT22;18207;32.078;34.818;2024-03-06T13:14:38;27.20;36.80
23618;DHT22;18207;32.078;34.818;2024-03-06T13:17:11;27.10;36.80
23618;DHT22;18207;32.078;34.818;2024-03-06T13:19:42;27.10;36.80
23618;DHT22;18207;32.078;34.818;2024-03-06T13:22:14;27.10;36.80
23618;DHT22;18207;32.078;34.818;2024-03-06T13:24:52;27.10;36.90
23618;DHT22;18207;32.078;34.818;2024-03-06T13:27:23;27.00;37.40
23618;DHT22;18207;32.078;34.818;2024-03-06T13:29:53;27.00;36.80
23618;DHT22;18207;32.078;34.818;2024-03-06T13:32:22;27.00;36.80
23618;DHT22;18207;32.078;34.818;2024-03-06T13:34:53;27.00;36.80
23618;DHT22;18207;32.078;34.818;2024-03-06T13:37:26;26.90;36.90
23618;DHT22;18207;32.078;34.818;2024-03-06T13:39:58;26.90;36.80
23618;DHT22;18207;32.078;34.818;2024-03-06T13:42:31;26.90;36.80
23618;DHT22;18207;32.078;34.818;2024-03-06T13:45:01;26.80;36.80
23618;DHT22;18207;32.078;34.818;2024-03-06T13:47:32;26.80;36.80
23618;DHT22;18207;32.078;34.818;2024-03-06T13:50:06;26.80;36.90
23618;DHT22;18207;32.078;34.818;2024-03-06T13:52:38;26.80;36.90
23618;DHT22;18207;32.078;34.818;2024-03-06T13:55:10;26.80;36.90
23618;DHT22;18207;32.078;34.818;2024-03-06T13:57:40;26.80;36.90
23618;DHT22;18207;32.078;34.818;2024-03-06T14:00:14;26.80;36.90
23618;DHT22;18207;32.078;34.818;2024-03-06T14:02:54;26.80;36.90
23618;DHT22;18207;32.078;34.818;2024-03-06T14:05:41;26.70;36.90
23618;DHT22;18207;32.078;34.818;2024-03-06T14:08:24;26.70;36.90
23618;DHT22;18207;32.078;34.818;2024-03-06T14:11:08;26.70;36.90
23618;DHT22;18207;32.078;34.818;2024-03-06T14:13:39;26.70;36.90
23618;DHT22;18207;32.078;34.818;2024-03-06T14:16:11;26.70;36.90
23618;DHT22;18207;32.078;34.818;2024-03-06T14:18:45;26.70;37.00
23618;DHT22;18207;32.078;34.818;2024-03-06T14:21:18;26.70;36.90
23618;DHT22;18207;32.078;34.818;2024-03-06T14:23:48;26.60;36.90
23618;DHT22;18207;32.078;34.818;2024-03-06T14:26:23;26.70;36.90
23618;DHT22;18207;32.078;34.818;2024-03-06T14:28:53;26.60;37.40
23618;DHT22;18207;32.078;34.818;2024-03-06T14:31:23;26.60;37.10
23618;DHT22;18207;32.078;34.818;2024-03-06T14:33:55;26.60;36.80
23618;DHT22;18207;32.078;34.818;2024-03-06T14:36:47;26.60;36.80
23618;DHT22;18207;32.078;34.818;2024-03-06T14:39:25;26.50;36.80
23618;DHT22;18207;32.078;34.818;2024-03-06T14:41:59;26.50;36.90
23618;DHT22;18207;32.078;34.818;2024-03-06T14:44:33;26.50;36.90
23618;DHT22;18207;32.078;34.818;2024-03-06T14:47:03;26.40;36.90
23618;DHT22;18207;32.078;34.818;2024-03-06T14:49:34;26.40;37.00
23618;DHT22;18207;32.078;34.818;2024-03-06T14:52:06;26.40;37.00
23618;DHT22;18207;32.078;34.818;2024-03-06T14:54:36;26.40;37.10
23618;DHT22;18207;32.078;34.818;2024-03-06T14:57:11;26.40;37.10
23618;DHT22;18207;32.078;34.818;2024-03-06T14:59:42;26.40;37.20
23618;DHT22;18207;32.078;34.818;2024-03-06T15:02:12;26.30;37.20
23618;DHT22;18207;32.078;34.818;2024-03-06T15:04:42;26.30;37.20
23618;DHT22;18207;32.078;34.818;2024-03-06T15:07:12;26.30;37.20
23618;DHT22;18207;32.078;34.818;2024-03-06T15:09:45;26.30;37.20
23618;DHT22;18207;32.078;34.818;2024-03-06T15:12:23;26.30;37.30
23618;DHT22;18207;32.078;34.818;2024-03-06T15:14:57;26.30;37.30
23618;DHT22;18207;32.078;34.818;2024-03-06T15:17:27;26.30;37.30
23618;DHT22;18207;32.078;34.818;2024-03-06T15:19:59;26.30;37.30
23618;DHT22;18207;32.078;34.818;2024-03-06T15:22:31;26.30;37.30
23618;DHT22;18207;32.078;34.818;2024-03-06T15:25:05;26.20;37.30
23618;DHT22;18207;32.078;34.818;2024-03-06T15:27:41;26.20;37.30
23618;DHT22;18207;32.078;34.818;2024-03-06T15:30:11;26.20;37.30
23618;DHT22;18207;32.078;34.818;2024-03-06T15:32:42;26.20;37.30
23618;DHT22;18207;32.078;34.818;2024-03-06T15:35:12;26.20;37.30
23618;DHT22;18207;32.078;34.818;2024-03-06T15:37:43;26.10;37.40
23618;DHT22;18207;32.078;34.818;2024-03-06T15:40:13;26.10;37.40
23618;DHT22;18207;32.078;34.818;2024-03-06T15:42:52;26.10;37.40
23618;DHT22;18207;32.078;34.818;2024-03-06T15:45:33;26.10;37.50
23618;DHT22;18207;32.078;34.818;2024-03-06T15:48:04;26.10;37.50
23618;DHT22;18207;32.078;34.818;2024-03-06T15:50:36;26.10;37.60
23618;DHT22;18207;32.078;34.818;2024-03-06T15:53:07;26.10;37.50